sensor_id;sensor_type;location;lat;lon;timestamp;temperature;humidity
68804;SHT31;55787;52.678;13.314;2022-07-24T00:02:19;11.57;84.80
68804;SHT31;55787;52.678;13.314;2022-07-24T00:04:50;11.51;84.70
68804;SHT31;55787;52.678;13.314;2022-07-24T00:07:19;11.50;85.24
68804;SHT31;55787;52.678;13.314;2022-07-24T00:09:46;11.48;85.64
68804;SHT31;55787;52.678;13.314;2022-07-24T00:12:12;11.45;86.13
68804;SHT31;55787;52.678;13.314;2022-07-24T00:14:38;11.44;85.55
68804;SHT31;55787;52.678;13.314;2022-07-24T00:17:05;11.40;85.73
68804;SHT31;55787;52.678;13.314;2022-07-24T00:19:31;11.34;85.73
68804;SHT31;55787;52.678;13.314;2022-07-24T00:21:58;11.31;85.56
68804;SHT31;55787;52.678;13.314;2022-07-24T00:24:26;11.27;85.92
68804;SHT31;55787;52.678;13.314;2022-07-24T00:26:52;11.27;86.01
68804;SHT31;55787;52.678;13.314;2022-07-24T00:29:18;11.23;86.63
68804;SHT31;55787;52.678;13.314;2022-07-24T00:31:45;11.22;86.95
68804;SHT31;55787;52.678;13.314;2022-07-24T00:34:11;11.17;86.97
68804;SHT31;55787;52.678;13.314;2022-07-24T00:36:38;11.16;87.04
68804;SHT31;55787;52.678;13.314;2022-07-24T00:39:08;11.13;87.35
68804;SHT31;55787;52.678;13.314;2022-07-24T00:41:35;11.12;86.96
68804;SHT31;55787;52.678;13.314;2022-07-24T00:44:06;11.07;87.02
68804;SHT31;55787;52.678;13.314;2022-07-24T00:46:34;11.06;87.52
68804;SHT31;55787;52.678;13.314;2022-07-24T00:49:04;11.04;87.54
68804;SHT31;55787;52.678;13.314;2022-07-24T00:51:44;11.03;87.45
68804;SHT31;55787;52.678;13.314;2022-07-24T00:54:13;10.97;87.31
68804;SHT31;55787;52.678;13.314;2022-07-24T00:56:42;10.96;87.34
68804;SHT31;55787;52.678;13.314;2022-07-24T00:59:09;10.93;87.51
68804;SHT31;55787;52.678;13.314;2022-07-24T01:01:35;10.91;88.17
68804;SHT31;55787;52.678;13.314;2022-07-24T01:04:02;10.88;88.23
68804;SHT31;55787;52.678;13.314;2022-07-24T01:06:29;10.85;88.60
68804;SHT31;55787;52.678;13.314;2022-07-24T01:08:56;10.82;88.28
68804;SHT31;55787;52.678;13.314;2022-07-24T01:11:22;10.83;88.69
68804;SHT31;55787;52.678;13.314;2022-07-24T01:13:50;10.82;88.67
68804;SHT31;55787;52.678;13.314;2022-07-24T01:16:17;10.82;88.51
68804;SHT31;55787;52.678;13.314;2022-07-24T01:18:43;10.79;88.48
68804;SHT31;55787;52.678;13.314;2022-07-24T01:21:10;10.77;88.60
68804;SHT31;55787;52.678;13.314;2022-07-24T01:23:37;10.73;88.64
68804;SHT31;55787;52.678;13.314;2022-07-24T01:26:07;10.69;88.41
68804;SHT31;55787;52.678;13.314;2022-07-24T01:28:35;10.65;88.62
68804;SHT31;55787;52.678;13.314;2022-07-24T01:31:02;10.58;88.74
68804;SHT31;55787;52.678;13.314;2022-07-24T01:33:29;10.61;88.81
68804;SHT31;55787;52.678;13.314;2022-07-24T01:35:55;10.56;88.94
68804;SHT31;55787;52.678;13.314;2022-07-24T01:38:22;10.52;89.26
68804;SHT31;55787;52.678;13.314;2022-07-24T01:40:48;10.49;88.81
68804;SHT31;55787;52.678;13.314;2022-07-24T01:43:15;10.49;88.99
68804;SHT31;55787;52.678;13.314;2022-07-24T01:45:42;10.49;89.08
68804;SHT31;55787;52.678;13.314;2022-07-24T01:48:08;10.45;89.50
68804;SHT31;55787;52.678;13.314;2022-07-24T01:50:35;10.45;90.03
68804;SHT31;55787;52.678;13.314;2022-07-24T01:53:02;10.45;90.08
68804;SHT31;55787;52.678;13.314;2022-07-24T01:55:29;10.40;90.29
68804;SHT31;55787;52.678;13.314;2022-07-24T01:57:56;10.40;90.27
68804;SHT31;55787;52.678;13.314;2022-07-24T02:00:23;10.40;90.27
68804;SHT31;55787;52.678;13.314;2022-07-24T02:02:49;10.40;90.05
68804;SHT31;55787;52.678;13.314;2022-07-24T02:05:16;10.40;90.25
68804;SHT31;55787;52.678;13.314;2022-07-24T02:07:43;10.40;90.28
68804;SHT31;55787;52.678;13.314;2022-07-24T02:10:11;10.44;90.60
68804;SHT31;55787;52.678;13.314;2022-07-24T02:12:38;10.42;90.49
68804;SHT31;55787;52.678;13.314;2022-07-24T02:15:05;10.42;90.45
68804;SHT31;55787;52.678;13.314;2022-07-24T02:17:32;10.38;90.42
68804;SHT31;55787;52.678;13.314;2022-07-24T02:19:58;10.32;90.17
68804;SHT31;55787;52.678;13.314;2022-07-24T02:22:25;10.28;90.13
68804;SHT31;55787;52.678;13.314;2022-07-24T02:24:51;10.28;90.27
68804;SHT31;55787;52.678;13.314;2022-07-24T02:27:18;10.27;90.67
68804;SHT31;55787;52.678;13.314;2022-07-24T02:29:44;10.21;90.33
68804;SHT31;55787;52.678;13.314;2022-07-24T02:32:11;10.17;90.24
68804;SHT31;55787;52.678;13.314;2022-07-24T02:34:37;10.14;90.78
68804;SHT31;55787;52.678;13.314;2022-07-24T02:37:04;10.13;90.98
68804;SHT31;55787;52.678;13.314;2022-07-24T02:39:30;10.08;90.86
68804;SHT31;55787;52.678;13.314;2022-07-24T02:41:56;10.10;91.04
68804;SHT31;55787;52.678;13.314;2022-07-24T02:44:23;10.04;91.41
68804;SHT31;55787;52.678;13.314;2022-07-24T02:46:49;10.04;91.40
68804;SHT31;55787;52.678;13.314;2022-07-24T02:49:16;9.98;91.03
68804;SHT31;55787;52.678;13.314;2022-07-24T02:51:43;10.00;90.98
68804;SHT31;55787;52.678;13.314;2022-07-24T02:54:10;9.97;91.09
68804;SHT31;55787;52.678;13.314;2022-07-24T02:56:36;9.94;91.39
68804;SHT31;55787;52.678;13.314;2022-07-24T02:59:03;9.94;91.74
68804;SHT31;55787;52.678;13.314;2022-07-24T03:01:30;9.93;91.58
68804;SHT31;55787;52.678;13.314;2022-07-24T03:03:56;9.91;91.51
68804;SHT31;55787;52.678;13.314;2022-07-24T03:06:23;9.89;91.54
68804;SHT31;55787;52.678;13.314;2022-07-24T03:08:49;9.89;91.76
68804;SHT31;55787;52.678;13.314;2022-07-24T03:11:16;9.87;92.22
68804;SHT31;55787;52.678;13.314;2022-07-24T03:13:43;9.84;92.07
68804;SHT31;55787;52.678;13.314;2022-07-24T03:16:09;9.84;92.08
68804;SHT31;55787;52.678;13.314;2022-07-24T03:18:36;9.83;91.89
68804;SHT31;55787;52.678;13.314;2022-07-24T03:21:03;9.82;91.61
68804;SHT31;55787;52.678;13.314;2022-07-24T03:23:29;9.79;91.46
68804;SHT31;55787;52.678;13.314;2022-07-24T03:25:56;9.80;91.97
68804;SHT31;55787;52.678;13.314;2022-07-24T03:28:24;9.77;91.87
68804;SHT31;55787;52.678;13.314;2022-07-24T03:30:51;9.77;92.03
68804;SHT31;55787;52.678;13.314;2022-07-24T03:33:17;9.79;92.21
68804;SHT31;55787;52.678;13.314;2022-07-24T03:35:44;9.77;92.05
68804;SHT31;55787;52.678;13.314;2022-07-24T03:38:10;9.76;91.91
68804;SHT31;55787;52.678;13.314;2022-07-24T03:40:37;9.76;92.15
68804;SHT31;55787;52.678;13.314;2022-07-24T03:43:03;9.76;91.99
68804;SHT31;55787;52.678;13.314;2022-07-24T03:45:30;9.77;92.13
68804;SHT31;55787;52.678;13.314;2022-07-24T03:47:56;9.80;92.09
68804;SHT31;55787;52.678;13.314;2022-07-24T03:50:23;9.82;92.18
68804;SHT31;55787;52.678;13.314;2022-07-24T03:52:50;9.83;92.65
68804;SHT31;55787;52.678;13.314;2022-07-24T03:55:17;9.91;92.39
68804;SHT31;55787;52.678;13.314;2022-07-24T03:57:43;9.94;92.32
68804;SHT31;55787;52.678;13.314;2022-07-24T04:00:10;9.93;92.22
68804;SHT31;55787;52.678;13.314;2022-07-24T04:02:37;9.95;92.18
68804;SHT31;55787;52.678;13.314;2022-07-24T04:05:04;10.00;92.36
68804;SHT31;55787;52.678;13.314;2022-07-24T04:07:35;10.13;92.43
68804;SHT31;55787;52.678;13.314;2022-07-24T04:10:03;10.24;92.64
68804;SHT31;55787;52.678;13.314;2022-07-24T04:12:29;10.22;92.28
68804;SHT31;55787;52.678;13.314;2022-07-24T04:14:56;10.32;92.20
68804;SHT31;55787;52.678;13.314;2022-07-24T04:17:22;10.38;91.97
68804;SHT31;55787;52.678;13.314;2022-07-24T04:19:49;10.41;91.94
68804;SHT31;55787;52.678;13.314;2022-07-24T04:22:15;10.46;91.88
68804;SHT31;55787;52.678;13.314;2022-07-24T04:24:42;10.56;91.68
68804;SHT31;55787;52.678;13.314;2022-07-24T04:27:08;10.59;91.34
68804;SHT31;55787;52.678;13.314;2022-07-24T04:29:34;10.62;91.31
68804;SHT31;55787;52.678;13.314;2022-07-24T04:32:01;10.72;90.99
68804;SHT31;55787;52.678;13.314;2022-07-24T04:34:27;10.77;91.31
68804;SHT31;55787;52.678;13.314;2022-07-24T04:36:54;10.85;91.29
68804;SHT31;55787;52.678;13.314;2022-07-24T04:39:20;10.89;91.09
68804;SHT31;55787;52.678;13.314;2022-07-24T04:41:47;10.92;91.55
68804;SHT31;55787;52.678;13.314;2022-07-24T04:44:14;10.99;91.57
68804;SHT31;55787;52.678;13.314;2022-07-24T04:46:40;11.10;91.45
68804;SHT31;55787;52.678;13.314;2022-07-24T04:49:06;11.23;91.21
68804;SHT31;55787;52.678;13.314;2022-07-24T04:51:34;11.34;91.07
68804;SHT31;55787;52.678;13.314;2022-07-24T04:54:01;11.43;90.30
68804;SHT31;55787;52.678;13.314;2022-07-24T04:56:27;11.50;90.22
68804;SHT31;55787;52.678;13.314;2022-07-24T04:58:57;11.62;89.09
68804;SHT31;55787;52.678;13.314;2022-07-24T05:01:24;11.77;89.08
68804;SHT31;55787;52.678;13.314;2022-07-24T05:03:51;11.88;88.96
68804;SHT31;55787;52.678;13.314;2022-07-24T05:06:18;12.02;86.95
68804;SHT31;55787;52.678;13.314;2022-07-24T05:08:44;12.09;87.40
68804;SHT31;55787;52.678;13.314;2022-07-24T05:11:10;12.21;87.93
68804;SHT31;55787;52.678;13.314;2022-07-24T05:13:37;12.36;86.26
68804;SHT31;55787;52.678;13.314;2022-07-24T05:16:04;12.49;86.53
68804;SHT31;55787;52.678;13.314;2022-07-24T05:18:31;12.61;86.59
68804;SHT31;55787;52.678;13.314;2022-07-24T05:20:58;12.80;84.32
68804;SHT31;55787;52.678;13.314;2022-07-24T05:23:24;12.93;84.50
68804;SHT31;55787;52.678;13.314;2022-07-24T05:25:51;13.10;84.60
68804;SHT31;55787;52.678;13.314;2022-07-24T05:28:17;13.24;83.99
68804;SHT31;55787;52.678;13.314;2022-07-24T05:30:44;13.36;83.49
68804;SHT31;55787;52.678;13.314;2022-07-24T05:33:11;13.52;82.76
68804;SHT31;55787;52.678;13.314;2022-07-24T05:35:38;13.72;79.22
68804;SHT31;55787;52.678;13.314;2022-07-24T05:38:05;13.83;80.28
68804;SHT31;55787;52.678;13.314;2022-07-24T05:40:31;14.00;80.62
68804;SHT31;55787;52.678;13.314;2022-07-24T05:42:58;14.13;80.71
68804;SHT31;55787;52.678;13.314;2022-07-24T05:45:24;14.30;79.92
68804;SHT31;55787;52.678;13.314;2022-07-24T05:47:51;14.44;79.82
68804;SHT31;55787;52.678;13.314;2022-07-24T05:50:17;14.58;79.43
68804;SHT31;55787;52.678;13.314;2022-07-24T05:52:43;14.75;78.45
68804;SHT31;55787;52.678;13.314;2022-07-24T05:55:10;14.89;77.71
68804;SHT31;55787;52.678;13.314;2022-07-24T05:57:43;15.06;76.98
68804;SHT31;55787;52.678;13.314;2022-07-24T06:00:09;15.24;77.14
68804;SHT31;55787;52.678;13.314;2022-07-24T06:02:42;15.46;76.81
68804;SHT31;55787;52.678;13.314;2022-07-24T06:05:09;15.65;76.09
68804;SHT31;55787;52.678;13.314;2022-07-24T06:07:35;15.90;72.20
68804;SHT31;55787;52.678;13.314;2022-07-24T06:10:02;16.13;70.19
68804;SHT31;55787;52.678;13.314;2022-07-24T06:12:30;17.00;69.61
68804;SHT31;55787;52.678;13.314;2022-07-24T06:14:56;18.37;61.53
68804;SHT31;55787;52.678;13.314;2022-07-24T06:17:23;19.91;56.65
68804;SHT31;55787;52.678;13.314;2022-07-24T06:19:49;21.38;53.67
68804;SHT31;55787;52.678;13.314;2022-07-24T06:22:15;22.30;50.59
68804;SHT31;55787;52.678;13.314;2022-07-24T06:24:42;23.48;48.38
68804;SHT31;55787;52.678;13.314;2022-07-24T06:27:08;24.29;46.17
68804;SHT31;55787;52.678;13.314;2022-07-24T06:29:38;24.69;45.50
68804;SHT31;55787;52.678;13.314;2022-07-24T06:32:05;23.63;45.32
68804;SHT31;55787;52.678;13.314;2022-07-24T06:34:31;23.60;45.88
68804;SHT31;55787;52.678;13.314;2022-07-24T06:36:57;25.09;43.96
68804;SHT31;55787;52.678;13.314;2022-07-24T06:39:24;25.19;43.37
68804;SHT31;55787;52.678;13.314;2022-07-24T06:41:50;24.90;42.53
68804;SHT31;55787;52.678;13.314;2022-07-24T06:44:17;23.50;45.12
68804;SHT31;55787;52.678;13.314;2022-07-24T06:46:43;25.28;42.54
68804;SHT31;55787;52.678;13.314;2022-07-24T06:49:10;26.39;40.26
68804;SHT31;55787;52.678;13.314;2022-07-24T06:51:36;26.63;39.82
68804;SHT31;55787;52.678;13.314;2022-07-24T06:54:03;27.33;39.24
68804;SHT31;55787;52.678;13.314;2022-07-24T06:56:29;27.46;38.54
68804;SHT31;55787;52.678;13.314;2022-07-24T06:58:56;24.64;41.70
68804;SHT31;55787;52.678;13.314;2022-07-24T07:01:22;25.95;41.10
68804;SHT31;55787;52.678;13.314;2022-07-24T07:03:55;26.06;40.66
68804;SHT31;55787;52.678;13.314;2022-07-24T07:06:22;26.61;38.83
68804;SHT31;55787;52.678;13.314;2022-07-24T07:08:48;27.45;39.22
68804;SHT31;55787;52.678;13.314;2022-07-24T07:11:15;28.39;37.46
68804;SHT31;55787;52.678;13.314;2022-07-24T07:13:41;28.67;37.08
68804;SHT31;55787;52.678;13.314;2022-07-24T07:16:08;26.15;39.30
68804;SHT31;55787;52.678;13.314;2022-07-24T07:18:34;26.55;39.70
68804;SHT31;55787;52.678;13.314;2022-07-24T07:21:05;27.66;37.00
68804;SHT31;55787;52.678;13.314;2022-07-24T07:23:33;28.14;36.33
68804;SHT31;55787;52.678;13.314;2022-07-24T07:25:59;29.09;35.69
68804;SHT31;55787;52.678;13.314;2022-07-24T07:28:26;29.64;34.82
68804;SHT31;55787;52.678;13.314;2022-07-24T07:30:52;29.72;34.18
68804;SHT31;55787;52.678;13.314;2022-07-24T07:33:19;30.18;34.30
68804;SHT31;55787;52.678;13.314;2022-07-24T07:35:46;30.21;32.40
68804;SHT31;55787;52.678;13.314;2022-07-24T07:38:12;30.04;32.69
68804;SHT31;55787;52.678;13.314;2022-07-24T07:40:39;27.89;35.47
68804;SHT31;55787;52.678;13.314;2022-07-24T07:43:05;28.12;36.53
68804;SHT31;55787;52.678;13.314;2022-07-24T07:45:31;29.87;34.21
68804;SHT31;55787;52.678;13.314;2022-07-24T07:47:58;29.42;32.56
68804;SHT31;55787;52.678;13.314;2022-07-24T07:50:25;29.01;33.66
68804;SHT31;55787;52.678;13.314;2022-07-24T07:52:52;27.81;36.38
68804;SHT31;55787;52.678;13.314;2022-07-24T07:55:19;28.85;34.48
68804;SHT31;55787;52.678;13.314;2022-07-24T07:57:46;29.84;33.10
68804;SHT31;55787;52.678;13.314;2022-07-24T08:00:31;30.03;33.03
68804;SHT31;55787;52.678;13.314;2022-07-24T08:02:58;29.45;34.06
68804;SHT31;55787;52.678;13.314;2022-07-24T08:05:25;28.68;33.75
68804;SHT31;55787;52.678;13.314;2022-07-24T08:07:51;28.37;34.40
68804;SHT31;55787;52.678;13.314;2022-07-24T08:10:19;29.77;34.55
68804;SHT31;55787;52.678;13.314;2022-07-24T08:12:47;28.45;33.78
68804;SHT31;55787;52.678;13.314;2022-07-24T08:15:13;29.64;31.71
68804;SHT31;55787;52.678;13.314;2022-07-24T08:17:40;27.72;34.19
68804;SHT31;55787;52.678;13.314;2022-07-24T08:20:07;29.06;34.05
68804;SHT31;55787;52.678;13.314;2022-07-24T08:22:33;30.27;32.61
68804;SHT31;55787;52.678;13.314;2022-07-24T08:25:00;31.16;30.50
68804;SHT31;55787;52.678;13.314;2022-07-24T08:27:27;31.04;30.26
68804;SHT31;55787;52.678;13.314;2022-07-24T08:29:54;30.62;29.79
68804;SHT31;55787;52.678;13.314;2022-07-24T08:32:21;30.39;28.65
68804;SHT31;55787;52.678;13.314;2022-07-24T08:34:47;30.92;28.98
68804;SHT31;55787;52.678;13.314;2022-07-24T08:37:13;31.27;29.55
68804;SHT31;55787;52.678;13.314;2022-07-24T08:39:40;30.55;30.47
68804;SHT31;55787;52.678;13.314;2022-07-24T08:42:07;32.80;29.21
68804;SHT31;55787;52.678;13.314;2022-07-24T08:44:34;32.25;27.56
68804;SHT31;55787;52.678;13.314;2022-07-24T08:47:00;33.03;27.79
68804;SHT31;55787;52.678;13.314;2022-07-24T08:49:30;32.59;27.00
68804;SHT31;55787;52.678;13.314;2022-07-24T08:51:59;32.90;27.08
68804;SHT31;55787;52.678;13.314;2022-07-24T08:54:26;33.00;28.12
68804;SHT31;55787;52.678;13.314;2022-07-24T08:56:55;33.27;26.64
68804;SHT31;55787;52.678;13.314;2022-07-24T08:59:22;33.03;25.95
68804;SHT31;55787;52.678;13.314;2022-07-24T09:01:53;34.02;27.01
68804;SHT31;55787;52.678;13.314;2022-07-24T09:04:38;33.41;26.73
68804;SHT31;55787;52.678;13.314;2022-07-24T09:07:10;33.70;25.67
68804;SHT31;55787;52.678;13.314;2022-07-24T09:09:41;33.39;26.60
68804;SHT31;55787;52.678;13.314;2022-07-24T09:12:13;34.41;26.84
68804;SHT31;55787;52.678;13.314;2022-07-24T09:14:42;35.38;25.09
68804;SHT31;55787;52.678;13.314;2022-07-24T09:17:18;34.58;25.38
68804;SHT31;55787;52.678;13.314;2022-07-24T09:25:15;35.34;23.99
68804;SHT31;55787;52.678;13.314;2022-07-24T09:27:51;33.65;24.85
68804;SHT31;55787;52.678;13.314;2022-07-24T09:30:32;32.91;25.61
68804;SHT31;55787;52.678;13.314;2022-07-24T09:33:01;34.28;26.17
68804;SHT31;55787;52.678;13.314;2022-07-24T09:38:09;33.76;25.41
68804;SHT31;55787;52.678;13.314;2022-07-24T09:40:41;35.79;25.53
68804;SHT31;55787;52.678;13.314;2022-07-24T09:43:23;36.62;24.73
68804;SHT31;55787;52.678;13.314;2022-07-24T09:48:31;34.94;23.79
68804;SHT31;55787;52.678;13.314;2022-07-24T09:51:04;35.01;24.67
68804;SHT31;55787;52.678;13.314;2022-07-24T09:53:33;36.56;22.78
68804;SHT31;55787;52.678;13.314;2022-07-24T09:56:15;35.93;24.18
68804;SHT31;55787;52.678;13.314;2022-07-24T10:01:13;36.04;22.77
68804;SHT31;55787;52.678;13.314;2022-07-24T10:03:43;34.40;24.14
68804;SHT31;55787;52.678;13.314;2022-07-24T10:06:13;34.90;24.08
68804;SHT31;55787;52.678;13.314;2022-07-24T10:08:41;35.45;24.63
68804;SHT31;55787;52.678;13.314;2022-07-24T10:11:10;37.09;23.26
68804;SHT31;55787;52.678;13.314;2022-07-24T10:13:37;37.47;24.83
68804;SHT31;55787;52.678;13.314;2022-07-24T10:16:29;37.39;21.70
68804;SHT31;55787;52.678;13.314;2022-07-24T10:19:02;35.98;22.04
68804;SHT31;55787;52.678;13.314;2022-07-24T10:21:33;33.68;24.69
68804;SHT31;55787;52.678;13.314;2022-07-24T10:26:46;36.45;24.06
68804;SHT31;55787;52.678;13.314;2022-07-24T10:29:19;37.53;22.67
68804;SHT31;55787;52.678;13.314;2022-07-24T10:31:53;37.46;21.87
68804;SHT31;55787;52.678;13.314;2022-07-24T10:34:47;36.74;21.61
68804;SHT31;55787;52.678;13.314;2022-07-24T10:40:28;36.04;23.20
68804;SHT31;55787;52.678;13.314;2022-07-24T10:45:32;36.51;22.67
68804;SHT31;55787;52.678;13.314;2022-07-24T10:53:24;35.86;23.47
68804;SHT31;55787;52.678;13.314;2022-07-24T10:55:50;35.22;24.30
68804;SHT31;55787;52.678;13.314;2022-07-24T10:58:17;36.19;24.68
68804;SHT31;55787;52.678;13.314;2022-07-24T11:00:48;36.25;24.64
68804;SHT31;55787;52.678;13.314;2022-07-24T11:03:24;37.15;23.24
68804;SHT31;55787;52.678;13.314;2022-07-24T11:08:41;35.14;25.13
68804;SHT31;55787;52.678;13.314;2022-07-24T11:11:19;37.15;23.09
68804;SHT31;55787;52.678;13.314;2022-07-24T11:13:53;37.02;23.02
68804;SHT31;55787;52.678;13.314;2022-07-24T11:16:27;36.31;22.77
68804;SHT31;55787;52.678;13.314;2022-07-24T11:21:37;37.18;24.47
68804;SHT31;55787;52.678;13.314;2022-07-24T11:24:14;38.38;22.57
68804;SHT31;55787;52.678;13.314;2022-07-24T11:29:24;36.25;23.77
68804;SHT31;55787;52.678;13.314;2022-07-24T11:32:00;34.33;24.63
68804;SHT31;55787;52.678;13.314;2022-07-24T11:34:28;35.15;24.14
68804;SHT31;55787;52.678;13.314;2022-07-24T11:36:56;36.23;23.94
68804;SHT31;55787;52.678;13.314;2022-07-24T11:39:34;36.67;23.57
68804;SHT31;55787;52.678;13.314;2022-07-24T11:42:03;36.54;22.76
68804;SHT31;55787;52.678;13.314;2022-07-24T11:44:40;35.72;23.72
68804;SHT31;55787;52.678;13.314;2022-07-24T11:47:13;36.30;24.69
68804;SHT31;55787;52.678;13.314;2022-07-24T11:49:40;34.50;24.67
68804;SHT31;55787;52.678;13.314;2022-07-24T11:52:07;35.42;32.59
68804;SHT31;55787;52.678;13.314;2022-07-24T11:54:34;34.36;24.89
68804;SHT31;55787;52.678;13.314;2022-07-24T11:57:01;34.60;24.31
68804;SHT31;55787;52.678;13.314;2022-07-24T11:59:32;35.74;25.54
68804;SHT31;55787;52.678;13.314;2022-07-24T12:02:07;36.35;25.65
68804;SHT31;55787;52.678;13.314;2022-07-24T12:04:34;35.52;26.91
68804;SHT31;55787;52.678;13.314;2022-07-24T12:07:05;36.05;33.32
68804;SHT31;55787;52.678;13.314;2022-07-24T12:09:43;36.48;32.46
68804;SHT31;55787;52.678;13.314;2022-07-24T12:12:31;36.40;27.62
68804;SHT31;55787;52.678;13.314;2022-07-24T12:15:05;33.99;26.15
68804;SHT31;55787;52.678;13.314;2022-07-24T12:17:34;34.23;26.17
68804;SHT31;55787;52.678;13.314;2022-07-24T12:20:02;34.77;26.94
68804;SHT31;55787;52.678;13.314;2022-07-24T12:22:32;35.50;26.73
68804;SHT31;55787;52.678;13.314;2022-07-24T12:24:59;33.59;25.82
68804;SHT31;55787;52.678;13.314;2022-07-24T12:27:39;33.65;28.53
68804;SHT31;55787;52.678;13.314;2022-07-24T12:30:29;35.18;26.61
68804;SHT31;55787;52.678;13.314;2022-07-24T12:33:02;35.39;24.93
68804;SHT31;55787;52.678;13.314;2022-07-24T12:35:32;35.76;24.60
68804;SHT31;55787;52.678;13.314;2022-07-24T12:38:00;34.74;25.99
68804;SHT31;55787;52.678;13.314;2022-07-24T12:40:34;33.17;25.70
68804;SHT31;55787;52.678;13.314;2022-07-24T12:43:06;33.61;25.71
68804;SHT31;55787;52.678;13.314;2022-07-24T12:45:33;33.24;26.00
68804;SHT31;55787;52.678;13.314;2022-07-24T12:50:34;35.38;26.83
68804;SHT31;55787;52.678;13.314;2022-07-24T12:53:21;35.62;25.90
68804;SHT31;55787;52.678;13.314;2022-07-24T12:56:00;36.07;23.04
68804;SHT31;55787;52.678;13.314;2022-07-24T12:58:27;36.11;24.17
68804;SHT31;55787;52.678;13.314;2022-07-24T13:00:57;34.99;24.62
68804;SHT31;55787;52.678;13.314;2022-07-24T13:03:25;34.74;24.68
68804;SHT31;55787;52.678;13.314;2022-07-24T13:05:55;35.15;26.70
68804;SHT31;55787;52.678;13.314;2022-07-24T13:08:22;35.29;25.52
68804;SHT31;55787;52.678;13.314;2022-07-24T13:10:48;35.50;24.92
68804;SHT31;55787;52.678;13.314;2022-07-24T13:13:15;34.92;26.18
68804;SHT31;55787;52.678;13.314;2022-07-24T13:15:41;35.50;24.61
68804;SHT31;55787;52.678;13.314;2022-07-24T13:18:07;34.96;24.82
68804;SHT31;55787;52.678;13.314;2022-07-24T13:20:34;33.89;25.38
68804;SHT31;55787;52.678;13.314;2022-07-24T13:23:01;33.96;26.40
68804;SHT31;55787;52.678;13.314;2022-07-24T13:25:28;34.58;27.54
68804;SHT31;55787;52.678;13.314;2022-07-24T13:27:55;34.81;25.65
68804;SHT31;55787;52.678;13.314;2022-07-24T13:30:38;35.02;25.30
68804;SHT31;55787;52.678;13.314;2022-07-24T13:33:05;34.65;25.77
68804;SHT31;55787;52.678;13.314;2022-07-24T13:35:32;34.06;26.22
68804;SHT31;55787;52.678;13.314;2022-07-24T13:37:58;33.42;25.86
68804;SHT31;55787;52.678;13.314;2022-07-24T13:40:25;32.37;27.36
68804;SHT31;55787;52.678;13.314;2022-07-24T13:42:51;31.89;27.60
68804;SHT31;55787;52.678;13.314;2022-07-24T13:45:18;31.78;27.36
68804;SHT31;55787;52.678;13.314;2022-07-24T13:47:44;31.48;29.28
68804;SHT31;55787;52.678;13.314;2022-07-24T13:50:11;32.15;29.34
68804;SHT31;55787;52.678;13.314;2022-07-24T13:52:37;31.47;28.27
68804;SHT31;55787;52.678;13.314;2022-07-24T13:55:04;31.60;30.30
68804;SHT31;55787;52.678;13.314;2022-07-24T13:57:31;31.95;30.29
68804;SHT31;55787;52.678;13.314;2022-07-24T13:59:57;32.16;30.06
68804;SHT31;55787;52.678;13.314;2022-07-24T14:02:24;31.89;29.80
68804;SHT31;55787;52.678;13.314;2022-07-24T14:04:50;31.91;28.47
68804;SHT31;55787;52.678;13.314;2022-07-24T14:07:17;31.45;28.40
68804;SHT31;55787;52.678;13.314;2022-07-24T14:09:43;31.91;29.87
68804;SHT31;55787;52.678;13.314;2022-07-24T14:12:10;32.08;29.51
68804;SHT31;55787;52.678;13.314;2022-07-24T14:14:39;31.84;30.96
68804;SHT31;55787;52.678;13.314;2022-07-24T14:17:06;32.01;29.80
68804;SHT31;55787;52.678;13.314;2022-07-24T14:19:32;31.92;29.44
68804;SHT31;55787;52.678;13.314;2022-07-24T14:21:59;31.07;29.08
68804;SHT31;55787;52.678;13.314;2022-07-24T14:24:25;31.14;29.38
68804;SHT31;55787;52.678;13.314;2022-07-24T14:26:52;31.14;28.63
68804;SHT31;55787;52.678;13.314;2022-07-24T14:29:18;31.17;29.97
68804;SHT31;55787;52.678;13.314;2022-07-24T14:31:45;31.27;28.64
68804;SHT31;55787;52.678;13.314;2022-07-24T14:34:12;30.79;28.66
68804;SHT31;55787;52.678;13.314;2022-07-24T14:36:39;30.86;30.03
68804;SHT31;55787;52.678;13.314;2022-07-24T14:39:05;30.90;29.30
68804;SHT31;55787;52.678;13.314;2022-07-24T14:41:33;30.92;30.49
68804;SHT31;55787;52.678;13.314;2022-07-24T14:44:00;30.76;29.88
68804;SHT31;55787;52.678;13.314;2022-07-24T14:46:32;29.66;30.75
68804;SHT31;55787;52.678;13.314;2022-07-24T14:48:58;29.60;31.06
68804;SHT31;55787;52.678;13.314;2022-07-24T14:51:25;29.69;32.80
68804;SHT31;55787;52.678;13.314;2022-07-24T14:53:51;30.08;31.66
68804;SHT31;55787;52.678;13.314;2022-07-24T14:56:18;29.85;32.26
68804;SHT31;55787;52.678;13.314;2022-07-24T14:58:52;29.78;31.16
68804;SHT31;55787;52.678;13.314;2022-07-24T15:01:18;30.08;30.84
68804;SHT31;55787;52.678;13.314;2022-07-24T15:03:44;30.17;30.77
68804;SHT31;55787;52.678;13.314;2022-07-24T15:06:11;29.94;30.53
68804;SHT31;55787;52.678;13.314;2022-07-24T15:08:37;29.91;30.49
68804;SHT31;55787;52.678;13.314;2022-07-24T15:11:05;29.64;30.58
68804;SHT31;55787;52.678;13.314;2022-07-24T15:13:31;29.70;30.68
68804;SHT31;55787;52.678;13.314;2022-07-24T15:16:04;29.77;30.95
68804;SHT31;55787;52.678;13.314;2022-07-24T15:18:31;29.72;30.84
68804;SHT31;55787;52.678;13.314;2022-07-24T15:20:57;29.32;30.58
68804;SHT31;55787;52.678;13.314;2022-07-24T15:23:24;29.49;30.98
68804;SHT31;55787;52.678;13.314;2022-07-24T15:25:51;29.69;30.42
68804;SHT31;55787;52.678;13.314;2022-07-24T15:28:18;29.96;32.57
68804;SHT31;55787;52.678;13.314;2022-07-24T15:30:45;29.66;30.31
68804;SHT31;55787;52.678;13.314;2022-07-24T15:33:12;29.72;30.17
68804;SHT31;55787;52.678;13.314;2022-07-24T15:35:39;29.06;30.39
68804;SHT31;55787;52.678;13.314;2022-07-24T15:38:05;29.30;32.18
68804;SHT31;55787;52.678;13.314;2022-07-24T15:40:32;29.33;31.93
68804;SHT31;55787;52.678;13.314;2022-07-24T15:43:00;29.16;30.96
68804;SHT31;55787;52.678;13.314;2022-07-24T15:45:27;29.23;32.16
68804;SHT31;55787;52.678;13.314;2022-07-24T15:47:53;29.11;31.36
68804;SHT31;55787;52.678;13.314;2022-07-24T15:50:20;28.82;31.93
68804;SHT31;55787;52.678;13.314;2022-07-24T15:52:47;29.15;31.64
68804;SHT31;55787;52.678;13.314;2022-07-24T15:55:13;29.08;31.92
68804;SHT31;55787;52.678;13.314;2022-07-24T15:57:47;28.76;31.78
68804;SHT31;55787;52.678;13.314;2022-07-24T16:00:13;28.39;31.91
68804;SHT31;55787;52.678;13.314;2022-07-24T16:02:40;28.50;32.12